createdAt,value
2019-05-03T00:02:32.298Z,95.90
2019-05-03T00:05:12.513Z,95.80
2019-05-03T00:07:42.140Z,95.70
2019-05-03T00:10:12.879Z,96.20
2019-05-03T00:12:42.357Z,96.00
2019-05-03T00:15:34.362Z,96.10
2019-05-03T00:18:03.710Z,96.10
2019-05-03T00:20:33.235Z,96.10
2019-05-03T00:23:02.905Z,96.10
2019-05-03T00:25:32.631Z,96.40
2019-05-03T00:28:02.184Z,96.40
2019-05-03T00:30:32.043Z,96.60
2019-05-03T00:33:02.883Z,96.60
2019-05-03T00:36:11.571Z,97.00
2019-05-03T00:38:41.934Z,97.10
2019-05-03T00:41:12.185Z,97.30
2019-05-03T00:43:42.361Z,97.60
2019-05-03T00:46:12.652Z,97.50
2019-05-03T00:48:43.040Z,97.50
2019-05-03T00:51:12.799Z,97.50
2019-05-03T00:53:42.428Z,97.60
2019-05-03T00:56:12.304Z,97.70
2019-05-03T00:58:53.072Z,98.00
2019-05-03T01:01:22.646Z,98.30
2019-05-03T01:03:52.672Z,98.50
2019-05-03T01:06:22.412Z,99.00
2019-05-03T01:08:52.386Z,99.30
2019-05-03T01:11:22.255Z,99.40
2019-05-03T01:13:52.348Z,99.90
2019-05-03T01:16:22.966Z,99.90
2019-05-03T01:18:52.464Z,99.90
2019-05-03T01:21:22.535Z,99.90
2019-05-03T01:23:52.650Z,99.90
2019-05-03T01:26:22.825Z,99.90
2019-05-03T01:28:52.718Z,99.90
2019-05-03T01:31:22.823Z,99.90
2019-05-03T01:33:52.650Z,99.80
2019-05-03T01:36:22.911Z,99.90
2019-05-03T01:38:52.868Z,99.70
2019-05-03T01:41:23.339Z,99.90
2019-05-03T01:43:52.817Z,99.90
2019-05-03T01:46:23.011Z,99.80
2019-05-03T01:49:24.065Z,99.90
2019-05-03T01:52:15.145Z,99.90
2019-05-03T01:54:44.750Z,99.90
2019-05-03T01:57:14.177Z,99.90
2019-05-03T01:59:43.469Z,99.90
2019-05-03T02:02:32.390Z,99.90
2019-05-03T02:05:19.403Z,99.90
2019-05-03T02:07:48.824Z,99.80
2019-05-03T02:10:18.097Z,99.90
2019-05-03T02:12:47.381Z,99.90
2019-05-03T02:15:16.658Z,99.80
2019-05-03T02:17:45.967Z,99.70
2019-05-03T02:20:15.245Z,99.90
2019-05-03T02:22:44.566Z,99.90
2019-05-03T02:25:15.357Z,99.90
2019-05-03T02:27:44.637Z,99.90
2019-05-03T02:30:14.651Z,99.90
2019-05-03T02:32:44.447Z,99.90
2019-05-03T02:35:14.183Z,99.90
2019-05-03T02:37:45.769Z,99.90
2019-05-03T02:40:15.426Z,99.90
2019-05-03T02:43:05.715Z,99.90
2019-05-03T02:45:38.420Z,99.90
2019-05-03T02:48:16.535Z,99.90
2019-05-03T02:50:46.092Z,99.90
2019-05-03T02:53:15.868Z,99.90
2019-05-03T02:55:45.547Z,99.90
2019-05-03T02:58:15.865Z,99.90
2019-05-03T03:00:58.197Z,99.90
2019-05-03T03:03:28.723Z,99.90
2019-05-03T03:05:58.887Z,99.90
2019-05-03T03:08:32.817Z,99.90
2019-05-03T03:11:02.349Z,99.90
2019-05-03T03:13:36.801Z,99.90
2019-05-03T03:16:08.030Z,99.90
2019-05-03T03:18:38.687Z,99.90
2019-05-03T03:21:15.892Z,99.90
2019-05-03T03:23:55.932Z,99.90
2019-05-03T03:26:37.462Z,99.90
2019-05-03T03:29:05.696Z,99.90
2019-05-03T03:31:58.966Z,99.90
2019-05-03T03:34:32.466Z,99.90
2019-05-03T03:37:06.439Z,99.90
2019-05-03T03:39:33.109Z,99.90
2019-05-03T03:42:05.293Z,99.90
2019-05-03T03:44:36.516Z,99.90
2019-05-03T03:47:06.080Z,99.90
2019-05-03T03:49:36.871Z,99.90
2019-05-03T03:52:07.779Z,99.90
2019-05-03T03:54:39.620Z,99.90
2019-05-03T03:57:12.068Z,99.90
2019-05-03T03:59:41.318Z,99.90
2019-05-03T04:02:10.995Z,99.90
2019-05-03T04:04:40.725Z,99.90
2019-05-03T04:07:10.329Z,99.90
2019-05-03T04:09:40.389Z,99.90
2019-05-03T04:12:10.049Z,99.90
2019-05-03T04:15:07.374Z,99.90
2019-05-03T04:17:58.726Z,99.90
2019-05-03T04:20:36.727Z,99.90
2019-05-03T04:23:06.105Z,99.90
2019-05-03T04:25:37.028Z,99.90
2019-05-03T04:28:06.297Z,99.90
2019-05-03T04:30:36.528Z,99.90
2019-05-03T04:33:06.347Z,99.90
2019-05-03T04:35:36.548Z,99.90
2019-05-03T04:38:06.195Z,99.90
2019-05-03T04:40:36.007Z,99.90
2019-05-03T04:43:06.249Z,99.60
2019-05-03T04:45:36.839Z,99.20
2019-05-03T04:48:06.875Z,98.90
2019-05-03T04:50:36.890Z,98.80
2019-05-03T04:53:06.510Z,98.60
2019-05-03T04:55:36.544Z,98.30
2019-05-03T04:58:06.018Z,98.40
2019-05-03T05:00:36.020Z,98.30
2019-05-03T05:03:06.151Z,98.60
2019-05-03T05:05:36.346Z,98.70
2019-05-03T05:08:06.255Z,98.50
2019-05-03T05:10:36.279Z,98.40
2019-05-03T05:13:05.872Z,98.20
2019-05-03T05:15:35.559Z,97.80
2019-05-03T05:18:15.772Z,97.20
2019-05-03T05:20:58.530Z,96.90
2019-05-03T05:23:27.797Z,96.30
2019-05-03T05:26:08.258Z,95.90
2019-05-03T05:28:44.778Z,95.40
2019-05-03T05:31:15.126Z,95.30
2019-05-03T05:33:44.764Z,95.30
2019-05-03T05:36:15.311Z,95.40
2019-05-03T05:38:45.143Z,95.30
2019-05-03T05:41:15.653Z,95.70
2019-05-03T05:43:45.162Z,96.40
2019-05-03T05:46:14.761Z,96.70
2019-05-03T05:48:49.489Z,97.00
2019-05-03T05:51:18.741Z,97.10
2019-05-03T05:53:48.030Z,96.60
2019-05-03T05:56:35.424Z,96.40
2019-05-03T05:59:11.987Z,96.60
2019-05-03T06:01:46.609Z,96.80
2019-05-03T06:04:15.874Z,96.90
2019-05-03T06:06:57.134Z,97.00
2019-05-03T06:09:39.078Z,96.90
2019-05-03T06:12:14.826Z,96.60
2019-05-03T06:14:51.209Z,96.50
2019-05-03T06:17:27.989Z,96.70
2019-05-03T06:20:16.210Z,97.00
2019-05-03T06:22:49.277Z,97.10
2019-05-03T06:25:26.789Z,97.10
2019-05-03T06:27:56.234Z,97.10
2019-05-03T06:30:56.325Z,97.00
2019-05-03T06:33:25.585Z,96.70
2019-05-03T06:35:54.901Z,96.20
2019-05-03T06:38:24.498Z,95.90
2019-05-03T06:40:54.416Z,95.80
2019-05-03T06:43:24.482Z,95.90
2019-05-03T06:45:54.791Z,95.60
2019-05-03T06:48:28.191Z,95.70
2019-05-03T06:50:55.806Z,95.40
2019-05-03T06:53:25.559Z,95.50
2019-05-03T06:55:55.471Z,95.50
2019-05-03T06:58:33.221Z,95.60
2019-05-03T07:01:25.364Z,95.50
2019-05-03T07:03:58.882Z,95.10
2019-05-03T07:06:40.102Z,95.40
2019-05-03T07:09:44.506Z,95.40
2019-05-03T07:12:14.840Z,95.40
2019-05-03T07:14:44.990Z,95.50
2019-05-03T07:17:14.638Z,95.70
2019-05-03T07:19:45.802Z,95.70
2019-05-03T07:22:15.241Z,95.50
2019-05-03T07:24:45.514Z,95.60
2019-05-03T07:27:15.921Z,95.60
2019-05-03T07:29:45.401Z,95.60
2019-05-03T07:32:15.626Z,95.40
2019-05-03T07:34:45.379Z,95.60
2019-05-03T07:37:14.865Z,95.30
2019-05-03T07:39:45.292Z,95.20
2019-05-03T07:42:15.642Z,95.00
2019-05-03T07:44:45.141Z,94.80
2019-05-03T07:47:14.913Z,94.90
2019-05-03T07:49:44.800Z,94.90
2019-05-03T07:52:14.799Z,94.90
2019-05-03T07:54:45.162Z,95.00
2019-05-03T07:57:35.695Z,95.20
2019-05-03T08:00:05.678Z,95.20
2019-05-03T08:02:35.991Z,94.90
2019-05-03T08:05:06.561Z,94.40
2019-05-03T08:07:35.869Z,93.50
2019-05-03T08:10:06.222Z,92.60
2019-05-03T08:12:35.566Z,90.60
2019-05-03T08:15:05.445Z,88.90
2019-05-03T08:17:34.766Z,87.70
2019-05-03T08:20:05.283Z,88.00
2019-05-03T08:22:34.709Z,85.70
2019-05-03T08:25:05.401Z,82.90
2019-05-03T08:27:35.432Z,80.70
2019-05-03T08:30:08.301Z,76.10
2019-05-03T08:32:56.037Z,74.20
2019-05-03T08:35:32.817Z,73.80
2019-05-03T08:38:04.831Z,77.30
2019-05-03T08:40:37.974Z,78.90
2019-05-03T08:43:07.293Z,82.30
2019-05-03T08:45:36.754Z,84.70
2019-05-03T08:48:06.306Z,87.30
2019-05-03T08:50:35.773Z,88.20
2019-05-03T08:53:05.301Z,89.60
2019-05-03T08:55:35.225Z,90.20
2019-05-03T08:58:05.165Z,90.50
2019-05-03T09:00:36.990Z,90.90
2019-05-03T09:03:06.253Z,91.30
2019-05-03T09:05:36.105Z,91.60
2019-05-03T09:08:05.873Z,91.50
2019-05-03T09:11:00.242Z,91.90
2019-05-03T09:13:46.328Z,92.70
2019-05-03T09:16:15.622Z,93.10
2019-05-03T09:18:45.461Z,93.10
2019-05-03T09:21:14.984Z,93.20
2019-05-03T09:23:44.998Z,93.00
2019-05-03T09:26:15.095Z,93.30
2019-05-03T09:28:45.416Z,93.40
2019-05-03T09:31:15.656Z,93.00
2019-05-03T09:33:45.363Z,93.20
2019-05-03T09:36:15.143Z,93.30
2019-05-03T09:38:45.790Z,92.00
2019-05-03T09:41:15.362Z,92.40
2019-05-03T09:43:45.079Z,93.20
2019-05-03T09:46:14.799Z,92.50
2019-05-03T09:48:45.485Z,92.00
2019-05-03T09:51:15.111Z,92.00
2019-05-03T09:53:49.907Z,92.60
2019-05-03T09:56:44.534Z,93.20
2019-05-03T09:59:09.122Z,93.10
2019-05-03T10:01:38.390Z,93.20
2019-05-03T10:04:07.673Z,93.30
2019-05-03T10:06:36.958Z,93.80
2019-05-03T10:09:07.079Z,94.30
2019-05-03T10:11:36.436Z,94.70
2019-05-03T10:14:05.777Z,95.80
2019-05-03T10:16:38.722Z,96.90
2019-05-03T10:19:08.018Z,97.70
2019-05-03T10:21:39.670Z,97.20
2019-05-03T10:24:08.961Z,97.20
2019-05-03T10:26:38.352Z,95.90
2019-05-03T10:29:07.642Z,95.20
2019-05-03T10:31:46.627Z,94.70
2019-05-03T10:34:15.914Z,95.00
2019-05-03T10:36:45.253Z,95.40
2019-05-03T10:39:15.484Z,95.40
2019-05-03T10:41:45.321Z,95.50
2019-05-03T10:44:15.169Z,95.40
2019-05-03T10:46:45.252Z,95.40
2019-05-03T10:49:15.369Z,95.50
2019-05-03T10:51:49.274Z,95.40
2019-05-03T10:54:19.062Z,95.50
2019-05-03T10:56:56.054Z,95.70
2019-05-03T10:59:25.442Z,95.60
2019-05-03T11:02:16.875Z,95.60
2019-05-03T11:04:46.304Z,95.30
2019-05-03T11:07:15.725Z,94.80
2019-05-03T11:09:49.865Z,94.90
2019-05-03T11:12:16.601Z,95.00
2019-05-03T11:14:45.862Z,94.60
2019-05-03T11:17:15.150Z,94.20
2019-05-03T11:19:45.449Z,94.50
2019-05-03T11:22:14.917Z,94.40
2019-05-03T11:24:45.376Z,94.20
2019-05-03T11:27:19.517Z,94.30
2019-05-03T11:29:48.783Z,94.40
2019-05-03T11:32:41.989Z,94.20
2019-05-03T11:35:25.494Z,93.70
2019-05-03T11:38:06.829Z,93.40
2019-05-03T11:40:36.145Z,93.30
2019-05-03T11:43:06.402Z,93.10
2019-05-03T11:45:35.654Z,92.90
2019-05-03T11:48:05.370Z,92.60
2019-05-03T11:50:34.802Z,92.70
2019-05-03T11:53:05.120Z,92.50
2019-05-03T11:55:35.200Z,92.50
2019-05-03T11:58:18.186Z,92.50
2019-05-03T12:00:50.438Z,92.60
2019-05-03T12:03:28.507Z,92.90
2019-05-03T12:05:59.642Z,92.90
2019-05-03T12:08:29.107Z,93.30
2019-05-03T12:11:01.440Z,93.40
2019-05-03T12:13:30.824Z,93.40
2019-05-03T12:16:01.460Z,93.80
2019-05-03T12:18:44.767Z,94.00
2019-05-03T12:21:02.994Z,93.80
2019-05-03T12:23:35.708Z,93.80
2019-05-03T12:26:09.456Z,93.30
2019-05-03T12:28:35.335Z,93.10
2019-05-03T12:31:05.520Z,92.90
2019-05-03T12:33:35.354Z,93.00
2019-05-03T12:36:05.890Z,93.10
2019-05-03T12:38:35.228Z,93.70
2019-05-03T12:41:05.625Z,93.80
2019-05-03T12:43:35.279Z,93.60
2019-05-03T12:46:05.255Z,93.60
2019-05-03T12:48:35.488Z,94.00
2019-05-03T12:51:06.303Z,94.20
2019-05-03T12:53:36.386Z,94.30
2019-05-03T12:56:11.639Z,94.10
2019-05-03T12:58:55.195Z,94.40
2019-05-03T13:01:41.671Z,94.50
2019-05-03T13:04:08.882Z,94.80
2019-05-03T13:06:41.037Z,95.40
2019-05-03T13:09:11.017Z,95.70
2019-05-03T13:11:52.903Z,96.20
2019-05-03T13:14:12.985Z,96.80
2019-05-03T13:16:44.402Z,97.40
2019-05-03T13:19:15.115Z,97.90
2019-05-03T13:21:44.988Z,98.40
2019-05-03T13:24:22.941Z,98.50
2019-05-03T13:26:45.751Z,98.90
2019-05-03T13:29:15.377Z,99.50
2019-05-03T13:31:55.862Z,99.90
2019-05-03T13:34:16.028Z,99.90
2019-05-03T13:36:45.801Z,99.90
2019-05-03T13:39:15.186Z,99.90
2019-05-03T13:41:45.580Z,99.90
2019-05-03T13:44:15.760Z,99.90
2019-05-03T13:46:45.182Z,99.90
2019-05-03T13:49:16.527Z,99.90
2019-05-03T13:51:45.792Z,99.90
2019-05-03T13:54:15.108Z,99.90
2019-05-03T13:56:44.394Z,99.90
2019-05-03T13:59:19.817Z,99.90
2019-05-03T14:01:45.043Z,99.90
2019-05-03T14:04:14.923Z,99.90
2019-05-03T14:06:44.913Z,99.90
2019-05-03T14:09:14.526Z,99.90
2019-05-03T14:11:44.792Z,99.90
2019-05-03T14:14:15.235Z,99.90
2019-05-03T14:16:45.200Z,99.90
2019-05-03T14:19:20.236Z,99.90
2019-05-03T14:21:54.487Z,99.90
2019-05-03T14:24:24.556Z,99.90
2019-05-03T14:26:55.156Z,99.90
2019-05-03T14:29:25.282Z,99.90
2019-05-03T14:31:54.707Z,99.90
2019-05-03T14:34:25.741Z,99.90
2019-05-03T14:36:55.514Z,99.90
2019-05-03T14:39:25.326Z,99.90
2019-05-03T14:41:55.482Z,99.90
2019-05-03T14:44:25.299Z,99.90
2019-05-03T14:46:58.844Z,99.90
2019-05-03T14:49:25.747Z,99.90
2019-05-03T14:51:56.760Z,99.90
2019-05-03T14:54:28.701Z,99.90
2019-05-03T14:57:25.851Z,99.90
2019-05-03T15:00:11.973Z,99.90
2019-05-03T15:02:51.460Z,99.90
2019-05-03T15:05:20.725Z,99.90
2019-05-03T15:07:49.997Z,99.90
2019-05-03T15:10:19.558Z,99.90
2019-05-03T15:12:48.862Z,99.80
2019-05-03T15:15:19.522Z,99.60
2019-05-03T15:17:48.786Z,99.50
2019-05-03T15:20:18.130Z,99.90
2019-05-03T15:22:47.402Z,99.80
2019-05-03T15:25:16.806Z,99.80
2019-05-03T15:27:48.508Z,99.80
2019-05-03T15:30:17.214Z,99.70
2019-05-03T15:32:56.643Z,99.70
2019-05-03T15:35:17.981Z,99.70
2019-05-03T15:37:47.231Z,99.90
2019-05-03T15:40:16.903Z,99.90
2019-05-03T15:43:05.613Z,99.70
2019-05-03T15:45:57.245Z,99.90
2019-05-03T15:48:28.793Z,99.90
2019-05-03T15:50:58.058Z,99.90
2019-05-03T15:53:27.328Z,99.40
2019-05-03T15:55:56.606Z,99.40
2019-05-03T15:58:25.926Z,99.40
2019-05-03T16:00:55.597Z,99.00
2019-05-03T16:03:25.368Z,98.70
2019-05-03T16:05:55.623Z,98.60
2019-05-03T16:08:25.150Z,98.80
2019-05-03T16:10:54.994Z,98.30
2019-05-03T16:13:25.269Z,98.00
2019-05-03T16:15:55.307Z,97.90
2019-05-03T16:18:24.922Z,97.80
2019-05-03T16:20:54.748Z,97.80
2019-05-03T16:23:25.009Z,98.40
2019-05-03T16:25:54.645Z,99.20
2019-05-03T16:28:30.494Z,99.90
2019-05-03T16:31:05.144Z,99.90
2019-05-03T16:33:34.954Z,99.90
2019-05-03T16:36:05.468Z,99.90
2019-05-03T16:38:35.466Z,99.90
2019-05-03T16:41:05.280Z,99.90
2019-05-03T16:43:34.953Z,99.90
2019-05-03T16:46:05.635Z,99.90
2019-05-03T16:48:35.401Z,99.90
2019-05-03T16:51:04.887Z,99.90
2019-05-03T16:53:35.057Z,99.90
2019-05-03T16:56:04.417Z,99.90
2019-05-03T16:58:35.420Z,99.90
2019-05-03T17:01:04.747Z,99.90
2019-05-03T17:03:41.509Z,99.90
2019-05-03T17:06:34.717Z,99.90
2019-05-03T17:09:22.579Z,99.90
2019-05-03T17:12:15.011Z,99.90
2019-05-03T17:14:44.185Z,99.90
2019-05-03T17:17:15.020Z,99.90
2019-05-03T17:19:44.814Z,99.90
2019-05-03T17:22:14.833Z,99.90
2019-05-03T17:24:45.427Z,99.90
2019-05-03T17:27:14.781Z,99.90
2019-05-03T17:29:44.549Z,99.90
2019-05-03T17:32:15.324Z,99.90
2019-05-03T17:34:45.343Z,99.90
2019-05-03T17:37:14.862Z,99.90
2019-05-03T17:40:01.886Z,99.90
2019-05-03T17:42:49.197Z,99.90
2019-05-03T17:45:22.770Z,99.90
2019-05-03T17:47:52.170Z,99.90
2019-05-03T17:50:21.430Z,99.90
2019-05-03T17:53:14.616Z,99.90
2019-05-03T17:56:07.088Z,99.90
2019-05-03T17:58:44.897Z,99.90
2019-05-03T18:01:31.976Z,99.90
2019-05-03T18:04:09.474Z,99.90
2019-05-03T18:06:45.116Z,99.90
2019-05-03T18:09:28.814Z,99.90
2019-05-03T18:11:59.522Z,99.90
2019-05-03T18:14:28.825Z,99.90
2019-05-03T18:16:58.110Z,99.90
2019-05-03T18:19:27.449Z,99.90
2019-05-03T18:21:56.771Z,99.90
2019-05-03T18:24:26.085Z,99.90
2019-05-03T18:26:55.857Z,99.90
2019-05-03T18:29:25.342Z,99.90
2019-05-03T18:31:55.122Z,99.90
2019-05-03T18:34:24.996Z,99.90
2019-05-03T18:36:54.418Z,99.90
2019-05-03T18:39:25.237Z,99.90
2019-05-03T18:41:54.752Z,99.90
2019-05-03T18:44:34.696Z,99.90
2019-05-03T18:47:07.312Z,99.90
2019-05-03T18:49:36.611Z,99.90
2019-05-03T18:52:05.999Z,99.90
2019-05-03T18:54:35.257Z,99.90
2019-05-03T18:57:05.155Z,99.90
2019-05-03T18:59:34.892Z,99.90
2019-05-03T19:02:05.422Z,99.90
2019-05-03T19:04:54.455Z,99.90
2019-05-03T19:07:41.806Z,99.90
2019-05-03T19:10:30.333Z,99.90
2019-05-03T19:13:04.698Z,99.90
2019-05-03T19:15:34.683Z,99.90
2019-05-03T19:18:16.966Z,99.90
2019-05-03T19:20:46.366Z,99.90
2019-05-03T19:23:15.685Z,99.90
2019-05-03T19:25:49.208Z,99.90
2019-05-03T19:28:16.680Z,99.90
2019-05-03T19:30:47.074Z,99.90
2019-05-03T19:33:16.362Z,99.90
2019-05-03T19:35:45.768Z,99.90
2019-05-03T19:38:15.232Z,99.90
2019-05-03T19:40:45.363Z,99.90
2019-05-03T19:43:15.282Z,99.90
2019-05-03T19:45:44.950Z,99.90
2019-05-03T19:48:14.773Z,99.90
2019-05-03T19:50:45.429Z,99.90
2019-05-03T19:53:40.069Z,99.90
2019-05-03T19:56:09.498Z,99.90
2019-05-03T19:58:38.841Z,99.90
2019-05-03T20:01:39.244Z,99.90
2019-05-03T20:04:29.005Z,99.90
2019-05-03T20:07:05.380Z,99.90
2019-05-03T20:09:35.010Z,99.90
2019-05-03T20:12:04.653Z,99.90
2019-05-03T20:14:35.755Z,99.90
2019-05-03T20:17:06.843Z,99.90
2019-05-03T20:19:36.285Z,99.90
2019-05-03T20:22:05.590Z,99.90
2019-05-03T20:24:34.875Z,99.90
2019-05-03T20:27:04.748Z,99.90
2019-05-03T20:29:34.535Z,99.90
2019-05-03T20:32:05.995Z,99.90
2019-05-03T20:34:36.588Z,99.90
2019-05-03T20:37:06.158Z,99.90
2019-05-03T20:39:35.457Z,99.90
2019-05-03T20:42:05.001Z,99.90
2019-05-03T20:44:54.487Z,99.90
2019-05-03T20:47:28.791Z,99.90
2019-05-03T20:50:16.785Z,99.90
2019-05-03T20:52:46.551Z,99.90
2019-05-03T20:55:16.105Z,99.90
2019-05-03T20:57:45.398Z,99.90
2019-05-03T21:00:18.542Z,99.90
2019-05-03T21:02:53.404Z,99.90
2019-05-03T21:05:27.796Z,99.90
2019-05-03T21:07:50.046Z,99.90
2019-05-03T21:10:19.413Z,99.90
2019-05-03T21:12:48.706Z,99.90
2019-05-03T21:15:35.481Z,99.90
2019-05-03T21:18:18.545Z,99.90
2019-05-03T21:21:07.906Z,99.90
2019-05-03T21:23:40.830Z,99.90
2019-05-03T21:26:13.681Z,99.90
2019-05-03T21:28:41.450Z,99.90
2019-05-03T21:31:10.814Z,99.90
2019-05-03T21:33:40.070Z,99.90
2019-05-03T21:36:09.341Z,99.90
2019-05-03T21:38:40.879Z,99.90
2019-05-03T21:41:09.639Z,99.90
2019-05-03T21:43:38.981Z,99.90
2019-05-03T21:46:19.245Z,99.90
2019-05-03T21:48:58.947Z,99.90
2019-05-03T21:51:28.263Z,99.90
2019-05-03T21:53:57.526Z,99.90
2019-05-03T21:56:26.798Z,99.90
2019-05-03T21:58:56.123Z,99.90
2019-05-03T22:01:25.894Z,99.90
2019-05-03T22:03:55.671Z,99.90
2019-05-03T22:06:24.938Z,99.90
2019-05-03T22:08:55.444Z,99.90
2019-05-03T22:11:25.161Z,99.90
2019-05-03T22:13:57.165Z,99.90
2019-05-03T22:16:51.185Z,99.90
2019-05-03T22:19:20.454Z,99.90
2019-05-03T22:22:14.877Z,99.90
2019-05-03T22:24:48.097Z,99.90
2019-05-03T22:27:19.017Z,99.90
2019-05-03T22:29:48.286Z,99.90
2019-05-03T22:32:17.553Z,99.90
2019-05-03T22:34:47.327Z,99.90
2019-05-03T22:37:16.780Z,99.90
2019-05-03T22:39:47.704Z,99.90
2019-05-03T22:42:17.256Z,99.90
2019-05-03T22:44:46.510Z,99.90
2019-05-03T22:47:15.797Z,99.90
2019-05-03T22:49:45.598Z,99.90
2019-05-03T22:52:15.483Z,99.90
2019-05-03T22:54:45.230Z,99.90
2019-05-03T22:57:15.322Z,99.90
2019-05-03T22:59:45.022Z,99.90
2019-05-03T23:02:16.767Z,99.90
2019-05-03T23:04:45.381Z,99.90
2019-05-03T23:07:15.004Z,99.90
2019-05-03T23:09:44.751Z,99.90
2019-05-03T23:12:14.157Z,99.90
2019-05-03T23:14:44.671Z,99.90
2019-05-03T23:17:14.967Z,99.90
2019-05-03T23:19:46.503Z,99.90
2019-05-03T23:22:24.564Z,99.90
2019-05-03T23:24:54.846Z,99.90
2019-05-03T23:27:24.995Z,99.90
2019-05-03T23:29:54.611Z,99.90
2019-05-03T23:32:24.522Z,99.90
2019-05-03T23:34:54.422Z,99.90
2019-05-03T23:37:23.897Z,99.90
2019-05-03T23:39:55.006Z,99.90
2019-05-03T23:42:24.531Z,99.90
2019-05-03T23:44:53.990Z,99.90
2019-05-03T23:47:42.197Z,99.90
2019-05-03T23:50:15.982Z,99.90
2019-05-03T23:52:45.327Z,99.90
2019-05-03T23:55:34.440Z,99.90
2019-05-03T23:58:04.892Z,99.90
